createdAt,value
2022-10-15T00:00:43.667Z,15.33
2022-10-15T00:03:10.212Z,15.34
2022-10-15T00:05:40.557Z,15.41
2022-10-15T00:08:07.973Z,15.41
2022-10-15T00:10:35.139Z,15.33
2022-10-15T00:15:38.555Z,15.56
2022-10-15T00:18:05.120Z,15.69
2022-10-15T00:20:31.701Z,15.46
2022-10-15T00:22:58.220Z,15.50
2022-10-15T00:25:24.678Z,15.40
2022-10-15T00:27:51.100Z,15.41
2022-10-15T00:30:17.643Z,15.30
2022-10-15T00:32:44.092Z,15.18
2022-10-15T00:35:10.621Z,15.36
2022-10-15T00:37:37.080Z,15.35
2022-10-15T00:40:03.822Z,15.36
2022-10-15T00:42:30.293Z,15.43
2022-10-15T00:44:58.907Z,15.47
2022-10-15T00:47:37.193Z,15.35
2022-10-15T00:50:24.102Z,15.19
2022-10-15T00:53:03.931Z,15.26
2022-10-15T00:55:34.390Z,15.31
2022-10-15T00:58:06.200Z,15.30
2022-10-15T01:00:33.539Z,15.24
2022-10-15T01:03:00.090Z,15.27
2022-10-15T01:05:27.247Z,15.40
2022-10-15T01:07:53.786Z,15.61
2022-10-15T01:10:20.991Z,15.49
2022-10-15T01:13:15.472Z,15.48
2022-10-15T01:15:50.351Z,15.43
2022-10-15T01:18:22.702Z,15.36
2022-10-15T01:21:01.270Z,15.48
2022-10-15T01:24:04.811Z,15.60
2022-10-15T01:26:53.126Z,15.54
2022-10-15T01:29:58.645Z,15.38
2022-10-15T01:32:31.319Z,15.41
2022-10-15T01:35:13.942Z,15.36
2022-10-15T01:37:54.187Z,15.47
2022-10-15T01:40:27.970Z,15.41
2022-10-15T01:42:59.526Z,15.37
2022-10-15T01:45:30.940Z,15.45
2022-10-15T01:48:02.447Z,15.53
2022-10-15T01:50:31.587Z,15.61
2022-10-15T01:52:59.425Z,15.51
2022-10-15T01:55:26.755Z,15.52
2022-10-15T01:57:55.579Z,15.37
2022-10-15T02:00:22.165Z,15.40
2022-10-15T02:02:48.606Z,15.44
2022-10-15T02:05:24.797Z,15.52
2022-10-15T02:08:10.886Z,15.70
2022-10-15T02:10:37.395Z,15.74
2022-10-15T02:13:23.310Z,15.52
2022-10-15T02:16:02.411Z,15.25
2022-10-15T02:18:38.096Z,15.17
2022-10-15T02:21:10.040Z,15.38
2022-10-15T02:23:59.086Z,15.44
2022-10-15T02:26:28.114Z,15.33
2022-10-15T02:28:57.120Z,15.40
2022-10-15T02:31:24.419Z,15.39
2022-10-15T02:33:52.500Z,15.33
2022-10-15T02:36:19.786Z,15.51
2022-10-15T02:38:47.172Z,15.54
2022-10-15T02:41:13.696Z,15.55
2022-10-15T02:43:40.987Z,15.47
2022-10-15T02:46:09.222Z,15.63
2022-10-15T02:48:35.706Z,15.72
2022-10-15T02:51:02.155Z,15.86
2022-10-15T02:53:28.568Z,15.91
2022-10-15T02:55:55.100Z,15.83
2022-10-15T02:58:24.364Z,15.64
2022-10-15T03:00:51.409Z,15.71
2022-10-15T03:03:19.181Z,15.72
2022-10-15T03:05:45.862Z,15.61
2022-10-15T03:08:12.409Z,15.52
2022-10-15T03:10:45.897Z,15.38
2022-10-15T03:13:15.503Z,15.36
2022-10-15T03:15:42.038Z,15.22
2022-10-15T03:18:08.768Z,15.23
2022-10-15T03:20:35.310Z,15.30
2022-10-15T03:23:01.744Z,15.18
2022-10-15T03:25:28.215Z,15.15
2022-10-15T03:27:54.721Z,15.20
2022-10-15T03:30:21.182Z,15.23
2022-10-15T03:32:48.124Z,15.13
2022-10-15T03:35:15.051Z,15.09
2022-10-15T03:37:41.747Z,15.01
2022-10-15T03:40:13.422Z,14.87
2022-10-15T03:42:41.574Z,14.73
2022-10-15T03:45:08.811Z,14.77
2022-10-15T03:47:35.596Z,14.63
2022-10-15T03:50:02.313Z,14.69
2022-10-15T03:52:28.797Z,14.73
2022-10-15T03:54:55.325Z,14.92
2022-10-15T03:57:21.876Z,14.99
2022-10-15T03:59:48.376Z,15.09
2022-10-15T04:02:14.907Z,15.25
2022-10-15T04:04:41.394Z,15.30
2022-10-15T04:07:07.848Z,15.32
2022-10-15T04:09:34.305Z,15.36
2022-10-15T04:12:00.804Z,15.36
2022-10-15T04:14:40.930Z,15.20
2022-10-15T04:17:07.829Z,15.09
2022-10-15T04:19:34.282Z,15.12
2022-10-15T04:22:01.224Z,14.93
2022-10-15T04:24:27.863Z,14.86
2022-10-15T04:26:54.400Z,14.80
2022-10-15T04:29:20.833Z,14.89
2022-10-15T04:31:47.315Z,14.88
2022-10-15T04:34:13.795Z,14.79
2022-10-15T04:36:40.274Z,14.69
2022-10-15T04:39:08.648Z,14.77
2022-10-15T04:41:37.446Z,14.71
2022-10-15T04:44:04.130Z,14.54
2022-10-15T04:46:30.595Z,14.76
2022-10-15T04:48:57.071Z,14.79
2022-10-15T04:51:24.470Z,14.97
2022-10-15T04:53:50.987Z,15.07
2022-10-15T04:56:21.272Z,15.15
2022-10-15T04:58:49.002Z,15.14
2022-10-15T05:01:18.353Z,15.31
2022-10-15T05:03:46.146Z,15.29
2022-10-15T05:06:20.105Z,15.33
2022-10-15T05:08:47.334Z,15.28
2022-10-15T05:11:18.960Z,15.31
2022-10-15T05:13:45.825Z,15.27
2022-10-15T05:16:17.673Z,15.36
2022-10-15T05:18:45.270Z,15.40
2022-10-15T05:21:12.614Z,15.50
2022-10-15T05:23:39.694Z,15.47
2022-10-15T05:26:10.251Z,15.51
2022-10-15T05:28:36.961Z,15.18
2022-10-15T05:31:18.843Z,15.13
2022-10-15T05:33:46.982Z,15.13
2022-10-15T05:36:19.913Z,15.14
2022-10-15T05:38:48.034Z,15.02
2022-10-15T05:41:15.042Z,15.11
2022-10-15T05:43:42.106Z,15.05
2022-10-15T05:46:09.054Z,15.14
2022-10-15T05:48:35.540Z,15.38
2022-10-15T05:51:06.606Z,15.56
2022-10-15T05:53:33.271Z,15.49
2022-10-15T05:55:59.902Z,15.62
2022-10-15T05:58:27.449Z,15.47
2022-10-15T06:00:57.893Z,15.32
2022-10-15T06:03:24.798Z,15.05
2022-10-15T06:05:51.283Z,15.15
2022-10-15T06:08:17.907Z,15.24
2022-10-15T06:10:44.776Z,15.18
2022-10-15T06:13:11.650Z,14.97
2022-10-15T06:15:42.259Z,15.05
2022-10-15T06:18:09.270Z,15.04
2022-10-15T06:20:36.201Z,15.03
2022-10-15T06:23:04.912Z,14.93
2022-10-15T06:25:31.955Z,14.87
2022-10-15T06:28:02.976Z,15.10
2022-10-15T06:30:29.537Z,15.23
2022-10-15T06:32:56.535Z,15.09
2022-10-15T06:35:25.154Z,15.08
2022-10-15T06:37:51.673Z,15.05
2022-10-15T06:40:18.983Z,15.03
2022-10-15T06:42:45.913Z,15.13
2022-10-15T06:45:13.467Z,15.19
2022-10-15T06:47:41.367Z,15.27
2022-10-15T06:50:08.310Z,15.37
2022-10-15T06:52:35.116Z,15.40
2022-10-15T06:55:01.805Z,15.53
2022-10-15T06:57:29.660Z,15.63
2022-10-15T06:59:56.263Z,15.82
2022-10-15T07:02:23.660Z,15.99
2022-10-15T07:04:51.510Z,15.91
2022-10-15T07:07:18.061Z,15.92
2022-10-15T07:09:44.501Z,16.20
2022-10-15T07:12:10.965Z,16.29
2022-10-15T07:14:40.083Z,16.48
2022-10-15T07:17:08.835Z,16.72
2022-10-15T07:19:35.291Z,16.66
2022-10-15T07:22:01.788Z,16.84
2022-10-15T07:24:28.235Z,16.86
2022-10-15T07:26:54.677Z,16.76
2022-10-15T07:29:21.741Z,16.85
2022-10-15T07:31:48.273Z,16.78
2022-10-15T07:34:14.748Z,16.82
2022-10-15T07:36:41.241Z,17.04
2022-10-15T07:39:09.110Z,17.25
2022-10-15T07:41:35.731Z,17.35
2022-10-15T07:44:02.435Z,17.03
2022-10-15T07:46:29.283Z,16.94
2022-10-15T07:48:55.891Z,16.78
2022-10-15T07:51:22.427Z,16.80
2022-10-15T07:53:48.879Z,16.89
2022-10-15T07:56:15.835Z,16.61
2022-10-15T07:58:42.660Z,16.64
2022-10-15T08:01:10.945Z,16.86
2022-10-15T08:03:38.061Z,17.11
2022-10-15T08:06:06.353Z,17.30
2022-10-15T08:08:34.011Z,17.38
2022-10-15T08:11:18.992Z,17.54
2022-10-15T08:13:45.673Z,17.52
2022-10-15T08:16:14.224Z,17.73
2022-10-15T08:18:40.751Z,17.98
2022-10-15T08:21:08.088Z,18.20
2022-10-15T08:23:35.188Z,18.40
2022-10-15T08:26:02.041Z,18.43
2022-10-15T08:28:29.299Z,18.38
2022-10-15T08:31:02.634Z,18.30
2022-10-15T08:33:32.357Z,18.31
2022-10-15T08:35:59.154Z,18.47
2022-10-15T08:38:26.133Z,18.64
2022-10-15T08:40:55.433Z,18.74
2022-10-15T08:43:27.420Z,18.68
2022-10-15T08:45:57.292Z,18.47
2022-10-15T08:48:27.775Z,18.64
2022-10-15T08:50:56.716Z,18.64
2022-10-15T08:53:24.201Z,18.74
2022-10-15T08:55:55.334Z,18.79
2022-10-15T08:58:24.922Z,18.48
2022-10-15T09:00:58.842Z,18.03
2022-10-15T09:03:34.253Z,18.08
2022-10-15T09:06:10.030Z,18.43
2022-10-15T09:08:53.466Z,18.43
2022-10-15T09:12:02.456Z,18.50
2022-10-15T09:14:38.761Z,18.81
2022-10-15T09:17:20.250Z,19.16
2022-10-15T09:19:50.111Z,19.36
2022-10-15T09:22:17.871Z,19.17
2022-10-15T09:24:45.383Z,18.88
2022-10-15T09:27:37.089Z,19.29
2022-10-15T09:30:22.366Z,19.78
2022-10-15T09:32:55.819Z,19.84
2022-10-15T09:35:22.841Z,20.37
2022-10-15T09:37:54.512Z,20.51
2022-10-15T09:40:48.800Z,20.57
2022-10-15T09:43:20.241Z,20.15
2022-10-15T09:45:46.760Z,20.19
2022-10-15T09:48:18.167Z,20.10
2022-10-15T09:50:52.544Z,19.97
2022-10-15T09:53:48.233Z,19.54
2022-10-15T09:56:27.663Z,19.60
2022-10-15T09:58:58.551Z,19.61
2022-10-15T10:01:29.073Z,19.51
2022-10-15T10:04:14.259Z,19.44
2022-10-15T10:06:51.376Z,19.48
2022-10-15T10:09:40.451Z,19.62
2022-10-15T10:12:08.860Z,19.88
2022-10-15T10:14:40.457Z,20.22
2022-10-15T10:17:14.471Z,20.28
2022-10-15T10:19:40.962Z,20.08
2022-10-15T10:22:19.921Z,20.23
2022-10-15T10:24:47.209Z,19.99
2022-10-15T10:27:25.645Z,19.42
2022-10-15T10:29:55.776Z,19.68
2022-10-15T10:32:27.636Z,19.53
2022-10-15T10:34:54.484Z,19.19
2022-10-15T10:37:21.621Z,19.50
2022-10-15T10:39:59.145Z,19.37
2022-10-15T10:42:31.233Z,19.53
2022-10-15T10:45:14.022Z,20.01
2022-10-15T10:47:42.921Z,20.20
2022-10-15T10:50:33.282Z,20.59
2022-10-15T10:53:14.661Z,20.66
2022-10-15T10:55:42.353Z,20.56
2022-10-15T10:58:16.144Z,20.65
2022-10-15T11:00:44.907Z,20.64
2022-10-15T11:03:23.358Z,20.75
2022-10-15T11:05:56.370Z,20.84
2022-10-15T11:08:37.532Z,20.82
2022-10-15T11:11:24.498Z,20.82
2022-10-15T11:14:06.229Z,20.59
2022-10-15T11:16:54.341Z,20.38
2022-10-15T11:20:12.159Z,20.19
2022-10-15T11:22:47.872Z,20.00
2022-10-15T11:25:36.599Z,19.61
2022-10-15T11:28:40.897Z,19.15
2022-10-15T11:31:44.049Z,19.21
2022-10-15T11:34:45.222Z,19.30
2022-10-15T11:37:11.683Z,19.28
2022-10-15T11:40:14.926Z,19.16
2022-10-15T11:42:53.901Z,19.25
2022-10-15T11:45:42.251Z,19.31
2022-10-15T11:48:25.950Z,19.30
2022-10-15T11:50:59.952Z,19.38
2022-10-15T11:53:45.048Z,19.42
2022-10-15T11:56:33.733Z,19.35
2022-10-15T11:59:36.649Z,19.08
2022-10-15T12:02:13.551Z,19.26
2022-10-15T12:04:46.008Z,19.29
2022-10-15T12:07:22.106Z,19.34
2022-10-15T12:09:53.025Z,19.42
2022-10-15T12:12:27.565Z,19.40
2022-10-15T12:15:07.853Z,19.29
2022-10-15T12:17:46.666Z,19.24
2022-10-15T12:20:16.046Z,19.28
2022-10-15T12:23:00.268Z,19.23
2022-10-15T12:25:35.929Z,19.03
2022-10-15T12:28:05.266Z,19.19
2022-10-15T12:30:36.072Z,19.35
2022-10-15T12:33:03.844Z,19.37
2022-10-15T12:35:38.624Z,19.51
2022-10-15T12:38:19.445Z,19.57
2022-10-15T12:40:46.186Z,19.69
2022-10-15T12:43:15.415Z,19.61
2022-10-15T12:45:54.327Z,19.74
2022-10-15T12:48:28.231Z,19.61
2022-10-15T12:51:14.587Z,19.69
2022-10-15T12:53:45.612Z,19.83
2022-10-15T12:56:18.204Z,19.61
2022-10-15T12:58:44.649Z,19.68
2022-10-15T13:01:13.970Z,19.73
2022-10-15T13:03:49.198Z,19.65
2022-10-15T13:06:21.686Z,19.76
2022-10-15T13:09:09.623Z,20.05
2022-10-15T13:11:56.126Z,19.96
2022-10-15T13:14:36.992Z,20.09
2022-10-15T13:17:15.906Z,20.17
2022-10-15T13:19:57.067Z,20.14
2022-10-15T13:22:28.287Z,20.23
2022-10-15T13:24:54.875Z,20.34
2022-10-15T13:27:36.843Z,20.34
2022-10-15T13:30:06.829Z,19.91
2022-10-15T13:32:37.173Z,20.04
2022-10-15T13:35:10.139Z,20.08
2022-10-15T13:37:38.549Z,20.13
2022-10-15T13:40:08.014Z,20.15
2022-10-15T13:42:35.008Z,20.26
2022-10-15T13:45:17.000Z,20.50
2022-10-15T13:47:51.452Z,20.38
2022-10-15T13:50:30.769Z,20.42
2022-10-15T13:52:59.222Z,20.28
2022-10-15T13:55:28.864Z,20.28
2022-10-15T13:58:01.422Z,20.48
2022-10-15T14:00:31.939Z,20.45
2022-10-15T14:03:13.757Z,20.56
2022-10-15T14:05:40.310Z,20.61
2022-10-15T14:08:15.373Z,20.57
2022-10-15T14:10:41.946Z,20.50
2022-10-15T14:13:10.541Z,20.72
2022-10-15T14:15:41.068Z,20.74
2022-10-15T14:18:07.893Z,20.61
2022-10-15T14:20:34.370Z,20.62
2022-10-15T14:23:00.856Z,20.52
2022-10-15T14:25:27.512Z,20.54
2022-10-15T14:27:54.112Z,20.61
2022-10-15T14:30:30.118Z,20.63
2022-10-15T14:32:56.684Z,20.68
2022-10-15T14:35:34.490Z,20.76
2022-10-15T14:38:03.988Z,20.83
2022-10-15T14:40:30.912Z,20.65
2022-10-15T14:43:15.198Z,20.31
2022-10-15T14:45:50.865Z,20.26
2022-10-15T14:48:48.983Z,20.53
2022-10-15T14:51:21.215Z,20.52
2022-10-15T14:53:48.338Z,20.65
2022-10-15T14:56:19.405Z,20.54
2022-10-15T14:58:51.807Z,20.69
2022-10-15T15:01:19.275Z,20.61
2022-10-15T15:03:51.589Z,20.53
2022-10-15T15:06:18.327Z,20.53
2022-10-15T15:08:45.593Z,20.37
2022-10-15T15:11:15.698Z,20.53
2022-10-15T15:13:43.646Z,20.39
2022-10-15T15:16:12.588Z,20.57
2022-10-15T15:18:39.281Z,20.58
2022-10-15T15:21:07.105Z,20.19
2022-10-15T15:23:34.006Z,20.19
2022-10-15T15:26:01.082Z,20.16
2022-10-15T15:28:28.281Z,20.16
2022-10-15T15:31:00.341Z,19.58
2022-10-15T15:33:27.923Z,19.57
2022-10-15T15:36:09.344Z,19.53
2022-10-15T15:41:10.482Z,19.61
2022-10-15T15:43:37.360Z,19.27
2022-10-15T15:46:04.077Z,19.27
2022-10-15T15:48:30.589Z,19.21
2022-10-15T15:51:00.045Z,19.30
2022-10-15T15:53:26.511Z,19.25
2022-10-15T15:55:57.808Z,19.22
2022-10-15T15:58:24.487Z,19.15
2022-10-15T16:00:54.291Z,19.31
2022-10-15T16:03:20.658Z,19.43
2022-10-15T16:05:47.255Z,19.31
2022-10-15T16:08:14.004Z,19.31
2022-10-15T16:10:40.588Z,19.27
2022-10-15T16:13:07.496Z,18.95
2022-10-15T16:15:34.093Z,18.83
2022-10-15T16:18:00.544Z,18.80
2022-10-15T16:20:27.261Z,18.91
2022-10-15T16:22:54.041Z,18.83
2022-10-15T16:25:21.875Z,18.77
2022-10-15T16:27:51.686Z,18.60
2022-10-15T16:30:18.825Z,18.53
2022-10-15T16:32:45.653Z,18.19
2022-10-15T16:35:12.181Z,18.31
2022-10-15T16:37:41.633Z,18.39
2022-10-15T16:40:08.598Z,18.13
2022-10-15T16:42:38.055Z,18.11
2022-10-15T16:45:05.064Z,18.21
2022-10-15T16:47:31.578Z,18.20
2022-10-15T16:49:58.031Z,18.16
2022-10-15T16:52:24.954Z,18.13
2022-10-15T16:54:51.586Z,18.12
2022-10-15T16:57:18.195Z,18.14
2022-10-15T16:59:44.661Z,18.21
2022-10-15T17:02:13.718Z,18.26
2022-10-15T17:04:40.403Z,18.29
2022-10-15T17:07:06.974Z,18.14
2022-10-15T17:09:33.541Z,18.00
2022-10-15T17:12:00.017Z,18.14
2022-10-15T17:14:26.576Z,18.19
2022-10-15T17:16:53.273Z,18.20
2022-10-15T17:19:27.750Z,18.10
2022-10-15T17:22:00.171Z,18.11
2022-10-15T17:24:26.924Z,18.03
2022-10-15T17:26:53.443Z,18.01
2022-10-15T17:29:20.991Z,17.99
2022-10-15T17:31:49.055Z,17.95
2022-10-15T17:34:16.635Z,17.91
2022-10-15T17:36:45.760Z,17.94
2022-10-15T17:39:14.911Z,17.92
2022-10-15T17:41:43.162Z,17.75
2022-10-15T17:44:10.111Z,17.33
2022-10-15T17:46:36.669Z,17.50
2022-10-15T17:49:03.956Z,17.50
2022-10-15T17:51:31.759Z,17.35
2022-10-15T17:53:59.479Z,17.27
2022-10-15T17:56:31.103Z,17.37
2022-10-15T17:58:58.524Z,17.41
2022-10-15T18:01:56.644Z,17.35
2022-10-15T18:04:18.186Z,17.35
2022-10-15T18:06:45.202Z,17.19
2022-10-15T18:09:12.490Z,17.23
2022-10-15T18:11:39.412Z,17.12
2022-10-15T18:14:05.979Z,16.97
2022-10-15T18:16:32.721Z,17.03
2022-10-15T18:18:59.363Z,17.01
2022-10-15T18:21:26.265Z,17.15
2022-10-15T18:23:52.800Z,17.22
2022-10-15T18:26:21.058Z,17.06
2022-10-15T18:28:49.374Z,16.90
2022-10-15T18:31:16.480Z,16.72
2022-10-15T18:33:44.463Z,16.73
2022-10-15T18:36:32.203Z,16.84
2022-10-15T18:38:59.460Z,16.95
2022-10-15T18:41:31.392Z,16.86
2022-10-15T18:44:11.793Z,16.93
2022-10-15T18:46:38.600Z,16.98
2022-10-15T18:49:05.502Z,16.84
2022-10-15T18:51:34.369Z,16.69
2022-10-15T18:54:00.988Z,16.54
2022-10-15T18:56:27.631Z,16.45
2022-10-15T18:58:54.634Z,16.44
2022-10-15T19:01:31.493Z,16.51
2022-10-15T19:04:01.138Z,16.54
2022-10-15T19:06:31.570Z,16.54
2022-10-15T19:08:59.223Z,16.56
2022-10-15T19:11:26.368Z,16.52
2022-10-15T19:13:53.242Z,16.43
2022-10-15T19:16:19.879Z,16.46
2022-10-15T19:18:47.824Z,16.37
2022-10-15T19:21:14.464Z,16.18
2022-10-15T19:23:40.953Z,16.12
2022-10-15T19:26:09.439Z,16.23
2022-10-15T19:28:36.946Z,16.18
2022-10-15T19:31:05.403Z,16.18
2022-10-15T19:33:32.618Z,16.18
2022-10-15T19:35:59.563Z,16.27
2022-10-15T19:38:26.889Z,16.31
2022-10-15T19:40:54.225Z,16.14
2022-10-15T19:43:21.707Z,16.17
2022-10-15T19:45:49.034Z,16.27
2022-10-15T19:48:18.395Z,16.33
2022-10-15T19:50:46.048Z,16.24
2022-10-15T19:53:14.877Z,16.10
2022-10-15T19:55:41.433Z,16.01
2022-10-15T19:58:09.161Z,16.03
2022-10-15T20:00:36.288Z,16.07
2022-10-15T20:03:02.889Z,16.16
2022-10-15T20:05:29.412Z,16.15
2022-10-15T20:07:55.965Z,16.19
2022-10-15T20:10:25.947Z,16.00
2022-10-15T20:12:53.196Z,15.98
2022-10-15T20:15:20.383Z,15.96
2022-10-15T20:17:47.172Z,16.08
2022-10-15T20:20:13.928Z,16.22
2022-10-15T20:22:40.425Z,16.22
2022-10-15T20:25:07.252Z,16.19
2022-10-15T20:27:33.997Z,16.19
2022-10-15T20:30:00.639Z,16.14
2022-10-15T20:32:34.563Z,16.07
2022-10-15T20:35:02.464Z,15.92
2022-10-15T20:37:28.979Z,15.97
2022-10-15T20:42:27.263Z,16.03
2022-10-15T20:44:54.315Z,16.15
2022-10-15T20:47:21.075Z,16.05
2022-10-15T20:49:50.091Z,15.93
2022-10-15T20:52:16.842Z,15.93
2022-10-15T20:54:43.785Z,16.00
2022-10-15T20:57:10.657Z,15.88
2022-10-15T20:59:37.207Z,15.96
2022-10-15T21:02:03.948Z,15.98
2022-10-15T21:04:30.416Z,15.97
2022-10-15T21:06:56.907Z,16.02
2022-10-15T21:09:24.030Z,15.99
2022-10-15T21:11:50.600Z,16.16
2022-10-15T21:14:17.152Z,16.27
2022-10-15T21:16:43.674Z,16.43
2022-10-15T21:19:10.312Z,16.45
2022-10-15T21:21:39.296Z,16.56
2022-10-15T21:24:07.680Z,16.64
2022-10-15T21:26:34.167Z,16.66
2022-10-15T21:29:00.796Z,16.58
2022-10-15T21:31:27.717Z,16.70
2022-10-15T21:33:55.119Z,16.60
2022-10-15T21:36:23.843Z,16.64
2022-10-15T21:39:00.722Z,16.58
2022-10-15T21:41:29.028Z,16.55
2022-10-15T21:43:55.684Z,16.72
2022-10-15T21:46:22.592Z,16.80
2022-10-15T21:48:49.705Z,16.50
2022-10-15T21:51:21.212Z,16.68
2022-10-15T21:53:48.016Z,16.71
2022-10-15T21:56:14.672Z,16.73
2022-10-15T21:58:41.751Z,16.76
2022-10-15T22:01:09.511Z,16.61
2022-10-15T22:03:36.609Z,16.69
2022-10-15T22:06:04.259Z,16.69
2022-10-15T22:08:31.784Z,16.69
2022-10-15T22:11:16.355Z,16.62
2022-10-15T22:13:44.332Z,16.49
2022-10-15T22:16:11.134Z,16.66
2022-10-15T22:18:37.899Z,16.67
2022-10-15T22:21:12.826Z,16.59
2022-10-15T22:23:39.819Z,16.64
2022-10-15T22:26:06.414Z,16.63
2022-10-15T22:28:33.392Z,16.63
2022-10-15T22:31:04.906Z,16.56
2022-10-15T22:33:31.692Z,16.58
2022-10-15T22:36:03.341Z,16.51
2022-10-15T22:38:29.901Z,16.62
2022-10-15T22:40:56.435Z,16.80
2022-10-15T22:43:23.140Z,16.84
2022-10-15T22:45:49.786Z,16.87
2022-10-15T22:48:16.357Z,16.77
2022-10-15T22:50:42.803Z,16.70
2022-10-15T22:53:09.248Z,16.67
2022-10-15T22:55:36.277Z,16.54
2022-10-15T22:58:03.300Z,16.55
2022-10-15T23:00:29.986Z,16.72
2022-10-15T23:02:56.540Z,16.69
2022-10-15T23:05:23.048Z,16.71
2022-10-15T23:07:49.516Z,16.77
2022-10-15T23:10:16.024Z,16.77
2022-10-15T23:12:42.517Z,16.57
2022-10-15T23:15:09.878Z,16.43
2022-10-15T23:17:36.474Z,16.39
2022-10-15T23:20:03.048Z,16.46
2022-10-15T23:22:30.074Z,16.53
2022-10-15T23:24:56.708Z,16.55
2022-10-15T23:27:23.459Z,16.48
2022-10-15T23:29:57.012Z,16.48
2022-10-15T23:32:34.160Z,16.38
2022-10-15T23:35:00.700Z,16.26
2022-10-15T23:37:27.838Z,16.25
2022-10-15T23:39:54.603Z,16.13
2022-10-15T23:42:21.353Z,16.23
2022-10-15T23:44:48.231Z,16.22
2022-10-15T23:47:14.778Z,16.09
2022-10-15T23:49:42.079Z,16.00
2022-10-15T23:52:08.805Z,16.02
2022-10-15T23:54:35.710Z,15.92
2022-10-15T23:57:02.443Z,16.12
2022-10-15T23:59:29.006Z,16.23
